Latest Coastal Weather Observations for Portland Harbour

IDV60701

Issued at 9:51 am EDT Saturday 28 February 2015 (issued every 10 minutes, with the page automatically refreshed every 10 minutes)

About coastal observations | Map of coastal stations | Coastal observations for VIC | Marine services | Other Formats
Station Details ID: 090192 Name: PORTLAND NTC AWS Lat: -38.34 Lon: 141.61 Height: 0.0 m
Data from the previous 72 hours. | See also: Recent months for locations in Victoria
Date/Time
EDT
Temp

°C
Wind Pressure Rain
since 9am
mm
Weather Cloud Vis
km
Sea
Height
m
Swell
Dir
 
Speed
knots
Gust
knots
hPa Trend Height
m
Period
s
Dir
28/09:30am 21.0 NW 6 13 1003.7 - - - - - - - - -
28/09:00am 20.5 NNW 12 18 1003.6 - - - - - - - - -
28/08:30am 20.1 NNW 14 18 1003.5 - - - - - - - - -
28/08:00am 20.0 NNW 17 21 1003.2 - - - - - - - - -
28/07:30am 19.6 NNW 16 19 1003.4 - - - - - - - - -
28/07:27am 19.6 NNW 15 19 1003.3 - - - - - - - - -
28/07:00am 19.2 NNE 5 9 1003.3 - - - - - - - - -
28/06:30am 18.1 N 5 7 1003.2 - - - - - - - - -
28/06:00am 17.5 N 3 4 1003.3 - - - - - - - - -
28/05:30am 17.1 NNW 6 8 1003.7 - - - - - - - - -
28/05:00am 17.1 NNE 6 7 1003.6 - - - - - - - - -
28/04:30am 17.5 NNE 8 10 1003.9 - - - - - - - - -
28/04:00am - NNE 8 9 1004.7 - - - - - - - - -
28/03:30am - NE 8 9 1005.3 - - - - - - - - -
28/03:00am 17.8 NE 8 10 1005.6 - - - - - - - - -
28/02:30am 17.6 NE 7 9 1006.1 - - - - - - - - -
28/02:00am 17.5 NE 10 12 1006.7 - - - - - - - - -
28/01:30am 17.2 NE 9 11 1007.6 - - - - - - - - -
28/01:00am 17.2 NE 9 11 1008.5 - - - - - - - - -
28/12:30am 17.4 NE 10 13 1008.8 - - - - - - - - -
28/12:00am 17.3 NNE 10 11 1009.3 - - - - - - - - -
 
Date/Time
EDT
Temp

°C
Wind Pressure Rain
since 9am
mm
Weather Cloud Vis
km
Sea
Height
m
Swell
Dir
 
Speed
knots
Gust
knots
hPa Trend Height
m
Period
s
Dir
27/11:30pm - NE 9 11 1009.9 - - - - - - - - -
27/11:00pm - ENE 8 10 1010.0 - - - - - - - - -
27/10:30pm - E 6 7 1010.2 - - - - - - - - -
27/10:00pm - ENE 6 8 1010.4 - - - - - - - - -
27/09:30pm - ESE 7 9 1010.3 - - - - - - - - -
27/09:00pm - ESE 7 9 1010.3 - - - - - - - - -
27/08:30pm - ESE 5 7 1010.5 - - - - - - - - -
27/08:00pm - ESE 6 7 1010.3 - - - - - - - - -
27/07:30pm - ESE 5 7 1010.3 - - - - - - - - -
27/07:00pm - ESE 7 8 1010.0 - - - - - - - - -
27/06:30pm - SE 8 10 1010.1 - - - - - - - - -
27/06:00pm - SE 8 11 1010.2 - - - - - - - - -
27/05:30pm - SE 7 9 1010.1 - - - - - - - - -
27/05:00pm - SE 9 11 1009.7 - - - - - - - - -
27/04:30pm - SE 10 13 1009.8 - - - - - - - - -
27/04:00pm - ESE 10 11 1010.1 - - - - - - - - -
27/03:30pm - ESE 10 12 1010.2 - - - - - - - - -
27/03:00pm - ESE 10 12 1010.3 - - - - - - - - -
27/02:30pm - SE 11 15 1010.9 - - - - - - - - -
27/02:00pm - SE 12 15 1011.3 - - - - - - - - -
27/01:30pm - SE 11 13 1011.6 - - - - - - - - -
27/01:00pm - SE 9 11 1011.8 - - - - - - - - -
27/12:30pm - ESE 6 8 1011.6 - - - - - - - - -
27/12:00pm - E 6 8 1011.5 - - - - - - - - -
27/11:30am - ESE 5 7 1012.0 - - - - - - - - -
27/11:00am - E 4 6 1012.2 - - - - - - - - -
27/10:30am 17.5 ESE 4 6 1011.8 - - - - - - - - -
27/10:00am - E 4 5 1011.7 - - - - - - - - -
27/09:30am 17.6 ESE 4 5 1011.8 - - - - - - - - -
27/09:00am 17.6 SE 4 5 1011.4 - - - - - - - - -
27/08:30am 16.3 SSW 2 4 1011.2 - - - - - - - - -
27/08:00am 15.1 WSW 2 2 1011.2 - - - - - - - - -
27/07:30am 14.8 WSW 4 5 1011.2 - - - - - - - - -
27/07:00am 16.3 S 3 4 1010.4 - - - - - - - - -
27/06:30am 16.6 SSE 6 8 1010.3 - - - - - - - - -
27/06:00am 16.7 SSE 7 9 1010.2 - - - - - - - - -
27/05:30am 17.2 SE 7 9 1010.1 - - - - - - - - -
27/05:00am 17.1 SSE 4 5 1010.6 - - - - - - - - -
27/04:30am 17.2 SSE 6 9 1010.6 - - - - - - - - -
27/04:00am 17.4 SE 8 10 1010.5 - - - - - - - - -
27/03:30am 17.4 SE 8 11 1010.4 - - - - - - - - -
27/03:00am 17.6 ESE 5 7 1010.6 - - - - - - - - -
27/02:30am 17.2 E 2 4 1011.0 - - - - - - - - -
27/02:00am 16.9 SSW 3 4 1011.5 - - - - - - - - -
27/01:30am 17.5 SE 4 6 1011.6 - - - - - - - - -
27/01:00am 17.5 SSE 4 6 1011.8 - - - - - - - - -
27/12:30am 17.6 SSE 5 8 1012.0 - - - - - - - - -
27/12:00am 17.5 S 6 9 1012.2 - - - - - - - - -
 
Date/Time
EDT
Temp

°C
Wind Pressure Rain
since 9am
mm
Weather Cloud Vis
km
Sea
Height
m
Swell
Dir
 
Speed
knots
Gust
knots
hPa Trend Height
m
Period
s
Dir
26/11:30pm 17.7 SSE 5 8 1011.8 - - - - - - - - -
26/11:00pm 17.7 S 7 9 1012.0 - - - - - - - - -
26/10:30pm 17.7 SSE 7 10 1012.0 - - - - - - - - -
26/10:00pm 17.7 S 7 11 1011.8 - - - - - - - - -
26/09:30pm 18.1 S 8 11 1011.4 - - - - - - - - -
26/09:00pm 18.7 SW 5 7 1011.5 - - - - - - - - -
26/08:30pm 19.1 WSW 6 10 1011.3 - - - - - - - - -
26/08:00pm 18.9 SW 8 12 1011.0 - - - - - - - - -
26/07:30pm 19.0 WSW 11 15 1010.8 - - - - - - - - -
26/07:00pm 19.2 WSW 11 14 1010.6 - - - - - - - - -
26/06:30pm 19.2 WSW 11 16 1010.5 - - - - - - - - -
26/06:00pm 19.1 SW 13 17 1010.3 - - - - - - - - -
26/05:30pm 19.0 SW 12 20 1010.3 - - - - - - - - -
26/05:00pm 19.7 SW 12 18 1010.3 - - - - - - - - -
26/04:30pm 19.3 SW 15 19 1010.5 - - - - - - - - -
26/04:00pm 19.6 WSW 12 18 1010.6 - - - - - - - - -
26/03:30pm 19.7 SW 12 16 1010.7 - - - - - - - - -
26/03:00pm 20.0 WSW 11 17 1011.0 - - - - - - - - -
26/02:30pm 20.0 WSW 9 19 1011.0 - - - - - - - - -
26/02:00pm 20.1 WSW 10 16 1011.2 - - - - - - - - -
26/01:30pm 19.8 SW 9 15 1011.5 - - - - - - - - -
26/01:00pm 19.9 SW 10 14 1011.8 - - - - - - - - -
26/12:30pm 19.6 SW 9 15 1011.9 - - - - - - - - -
26/12:00pm 19.4 SW 8 12 1012.1 - - - - - - - - -
26/11:30am 19.0 SW 10 16 1012.3 - - - - - - - - -
26/11:00am 18.8 WSW 9 13 1012.4 - - - - - - - - -
26/10:30am 18.0 WSW 10 12 1012.3 - - - - - - - - -
26/10:00am 17.8 SW 10 13 1012.2 - - - - - - - - -
26/09:30am 17.9 WSW 9 13 1012.0 - - - - - - - - -
26/09:00am 17.1 W 3 6 1011.7 - - - - - - - - -
26/08:30am 16.4 WNW 2 4 1011.4 - - - - - - - - -
26/08:00am 15.6 WNW 4 5 1011.4 - - - - - - - - -
26/07:30am 15.7 W 4 5 1010.8 - - - - - - - - -
26/07:00am 16.1 NW 4 5 1010.3 - - - - - - - - -
26/06:30am 16.2 WNW 2 3 1010.3 - - - - - - - - -
26/06:00am 16.5 W 4 5 1010.3 - - - - - - - - -
26/05:30am 16.3 W 4 6 1010.3 - - - - - - - - -
26/05:00am 16.4 W 5 7 1010.4 - - - - - - - - -
26/04:30am 16.2 W 4 5 1010.1 - - - - - - - - -
26/04:00am 16.4 WNW 4 5 1010.1 - - - - - - - - -
26/03:30am 16.3 W 3 6 1010.3 - - - - - - - - -
26/03:00am 16.5 WNW 6 7 1010.5 - - - - - - - - -
26/02:30am 16.6 W 4 6 1010.6 - - - - - - - - -
26/02:00am 16.9 WSW 3 4 1010.7 - - - - - - - - -
26/01:30am 16.9 WSW 3 4 1011.1 - - - - - - - - -
26/01:00am 17.3 SSW 5 6 1011.4 - - - - - - - - -
26/12:30am 17.1 WSW 5 7 1011.8 - - - - - - - - -
26/12:00am 16.9 WSW 4 6 1012.2 - - - - - - - - -
 
Date/Time
EDT
Temp

°C
Wind Pressure Rain
since 9am
mm
Weather Cloud Vis
km
Sea
Height
m
Swell
Dir
 
Speed
knots
Gust
knots
hPa Trend Height
m
Period
s
Dir
25/11:30pm 17.1 WSW 3 4 1012.3 - - - - - - - - -
25/11:00pm 17.4 SW 7 9 1012.8 - - - - - - - - -
25/10:30pm 17.4 SW 6 8 1012.7 - - - - - - - - -
25/10:00pm 17.3 SW 5 6 1012.7 - - - - - - - - -
25/09:30pm 17.7 SW 5 6 1012.3 - - - - - - - - -
25/09:00pm 18.0 SSW 5 7 1012.0 - - - - - - - - -
25/08:30pm 18.4 SSW 6 9 1012.0 - - - - - - - - -
25/08:00pm 18.8 SSW 6 8 1011.9 - - - - - - - - -
25/07:30pm 18.9 SE 6 9 1011.5 - - - - - - - - -
25/07:00pm 19.1 SSE 7 10 1012.1 - - - - - - - - -
25/06:30pm 19.1 SSE 8 12 1012.3 - - - - - - - - -
25/06:00pm 19.0 SE 10 13 1012.2 - - - - - - - - -
25/05:30pm 18.8 SE 6 14 1012.3 - - - - - - - - -
25/05:00pm 18.9 SE 4 10 1012.6 - - - - - - - - -
25/04:30pm 18.8 SE 5 12 1013.3 - - - - - - - - -
25/04:00pm 18.8 ESE 4 11 1013.8 - - - - - - - - -
25/03:30pm 18.8 ESE 5 11 1014.0 - - - - - - - - -
25/03:00pm 19.0 ESE 5 11 1014.7 - - - - - - - - -
25/02:30pm 18.8 SE 6 13 1014.5 - - - - - - - - -
25/02:00pm 18.5 SE 5 10 1014.8 - - - - - - - - -
25/01:30pm 18.5 SE 7 14 1015.4 - - - - - - - - -
25/01:00pm 18.2 ESE 7 14 1015.7 - - - - - - - - -
25/12:30pm 18.3 ESE 6 13 1016.5 - - - - - - - - -
25/12:00pm 18.3 SE 7 12 1017.3 - - - - - - - - -
25/11:30am 17.4 ESE 6 14 1017.5 - - - - - - - - -
25/11:00am 17.7 SE 7 16 1017.5 - - - - - - - - -
25/10:30am 17.2 SE 9 17 1017.6 - - - - - - - - -
25/10:00am 16.9 SE 7 15 1017.5 - - - - - - - - -

Other Formats:

Comma delimited format used in spreadsheet applications
http://www.bom.gov.au/fwo/IDV60701/IDV60701.95826.axf

JavaScript Object Notation format (JSON) in row-major order
http://www.bom.gov.au/fwo/IDV60701/IDV60701.95826.json